Miedwie — C6XP5 — position and weather

sailwx.info

Track history (hours):
 
Tides and Currents Weather Stations Pressure Air Temp Water Temp Dewpoint Dewpoint Depression Visibility Wind Speed Wind Dir Waves Ship Positions

Miedwie

Last reported at 2014-Sep-22 21:16 UTC. Time now 2014-Oct-23 03:42 UTC.
Position N 46°33' W 072°08'.
Warning: this ship's position is 30 days out of date.

Length 190 m; draft 8.9 m.

Type: Cargo ship. MMSI: 311018300.

Date/timePositionNaut miles runAvg speedWind from/ knotsBaromVisibWave heightAir tempDewpointWater temp
2014-Sep-22 21:16N 46°33' W 072°08'913.0
2014-Sep-22 20:33N 46°26' W 072°17'1212.4
2014-Sep-22 19:33N 46°20' W 072°32'1010.2
2014-Sep-22 18:33N 46°15' W 072°45'2311.2
2014-Sep-22 16:27N 45°60' W 073°11'1112.5
2014-Sep-22 15:33N 45°49' W 073°18'1212.2
2014-Sep-22 14:33N 45°39' W 073°28'6 5.6
2014-Sep-22 13:33N 45°34' W 073°31'1 0.8
2014-Sep-22 12:32N 45°35' W 073°30'0 0.0
2014-Sep-22 11:32N 45°35' W 073°30'0 0.0
2014-Sep-22 10:32N 45°35' W 073°30'0 0.0
2014-Sep-22 09:32N 45°35' W 073°30'0 0.0
2014-Sep-22 08:29N 45°35' W 073°30'0 0.0
2014-Sep-22 07:32N 45°35' W 073°30'0 0.0
2014-Sep-22 06:32N 45°35' W 073°30'0 0.0
2014-Sep-22 05:32N 45°35' W 073°30'0 0.0
2014-Sep-22 04:32N 45°35' W 073°30'0 0.0
2014-Sep-22 03:32N 45°35' W 073°30'5 0.7
2014-Sep-21 20:33N 45°30' W 073°31'3 2.8
2014-Sep-21 19:33N 45°27' W 073°30'4 3.6
2014-Sep-21 18:33N 45°24' W 073°34'1 1.0
2014-Sep-21 17:33N 45°24' W 073°35'5 5.2
2014-Sep-21 16:33N 45°25' W 073°43'1010.2
2014-Sep-21 15:33N 45°19' W 073°55'1 1.0
2014-Sep-21 14:33N 45°18' W 073°56'1 0.7
2014-Sep-21 13:33N 45°18' W 073°56'8 8.3
2014-Sep-21 12:33N 45°13' W 074°06'1110.7
2014-Sep-21 11:33N 45°10' W 074°21'92 7.5
2014-Sep-20 23:11N 44°15' W 076°05'811.8
2014-Sep-20 22:33N 44°12' W 076°15'9 8.8
2014-Sep-20 21:33N 44°06' W 076°24'1211.8
2014-Sep-20 20:32N 43°56' W 076°33'  
2014-Sep-18 04:16N 45°57' W 083°54'  
Track history (hours):
 
Tides and Currents Weather Stations Pressure Air Temp Water Temp Dewpoint Dewpoint Depression Visibility Wind Speed Wind Dir Waves Ship Positions

Miedwie

Last reported at 2014-Sep-22 21:16 UTC. Time now 2014-Oct-23 03:42 UTC.
Position N 46°33' W 072°08'.
Warning: this ship's position is 30 days out of date.

Length 190 m; draft 8.9 m.

Type: Cargo ship. MMSI: 311018300.

Date/timePositionNaut miles runAvg speedWind from/ knotsBaromVisibWave heightAir tempDewpointWater temp
2014-Sep-22 21:16N 46°33' W 072°08'913.0
2014-Sep-22 20:33N 46°26' W 072°17'1212.4
2014-Sep-22 19:33N 46°20' W 072°32'1010.2
2014-Sep-22 18:33N 46°15' W 072°45'2311.2
2014-Sep-22 16:27N 45°60' W 073°11'1112.5
2014-Sep-22 15:33N 45°49' W 073°18'1212.2
2014-Sep-22 14:33N 45°39' W 073°28'6 5.6
2014-Sep-22 13:33N 45°34' W 073°31'1 0.8
2014-Sep-22 12:32N 45°35' W 073°30'0 0.0
2014-Sep-22 11:32N 45°35' W 073°30'0 0.0
2014-Sep-22 10:32N 45°35' W 073°30'0 0.0
2014-Sep-22 09:32N 45°35' W 073°30'0 0.0
2014-Sep-22 08:29N 45°35' W 073°30'0 0.0
2014-Sep-22 07:32N 45°35' W 073°30'0 0.0
2014-Sep-22 06:32N 45°35' W 073°30'0 0.0
2014-Sep-22 05:32N 45°35' W 073°30'0 0.0
2014-Sep-22 04:32N 45°35' W 073°30'0 0.0
2014-Sep-22 03:32N 45°35' W 073°30'5 0.7
2014-Sep-21 20:33N 45°30' W 073°31'3 2.8
2014-Sep-21 19:33N 45°27' W 073°30'4 3.6
2014-Sep-21 18:33N 45°24' W 073°34'1 1.0
2014-Sep-21 17:33N 45°24' W 073°35'5 5.2
2014-Sep-21 16:33N 45°25' W 073°43'1010.2
2014-Sep-21 15:33N 45°19' W 073°55'1 1.0
2014-Sep-21 14:33N 45°18' W 073°56'1 0.7
2014-Sep-21 13:33N 45°18' W 073°56'8 8.3
2014-Sep-21 12:33N 45°13' W 074°06'1110.7
2014-Sep-21 11:33N 45°10' W 074°21'92 7.5
2014-Sep-20 23:11N 44°15' W 076°05'811.8
2014-Sep-20 22:33N 44°12' W 076°15'9 8.8
2014-Sep-20 21:33N 44°06' W 076°24'1211.8
2014-Sep-20 20:32N 43°56' W 076°33'  
2014-Sep-18 04:16N 45°57' W 083°54'  

Dump ship's entire track history